Sagamore, Massachusetts
Current Conditions -  °F | °C
As of 1:35 PM on Saturday 20 Dec 2014 (Local Time) from KFMH Reporting Station
Light Rain Light Rain  
Wind Chill: 28°   Ceiling: 3700
Heat Index: 36°   Visibility: 5mi
Dew Point: 32°   Wind: 10mph
Humidity: 87%   Direction: 330°NNW
Pressure: 30.22"   Gusts: NA
Location:  41.78°N, 70.53°W
Report Text: KFMH 201835Z AUTO 33009KT 5SM -RA FEW009 SCT019 BKN037 02/00 A3022 RMK AO2
Loading
Personal Weather Stations






























Interactive Weather Map New forecast layout! Learn more

10-Day Weather Forecast

Advertisements
Track Severe Weather on mobile